createdAt,value
2023-01-19T00:01:08.809Z,99451.16
2023-01-19T00:03:58.136Z,99454.41
2023-01-19T00:06:40.451Z,99451.47
2023-01-19T00:09:31.059Z,99461.81
2023-01-19T00:12:14.394Z,99453.66
2023-01-19T00:15:03.175Z,99457.13
2023-01-19T00:17:45.476Z,99462.06
2023-01-19T00:20:33.987Z,99460.34
2023-01-19T00:23:16.425Z,99451.16
2023-01-19T00:26:05.280Z,99453.19
2023-01-19T00:28:47.407Z,99452.19
2023-01-19T00:31:38.371Z,99455.91
2023-01-19T00:34:21.414Z,99461.31
2023-01-19T00:37:11.053Z,99457.09
2023-01-19T00:39:53.376Z,99466.09
2023-01-19T00:42:48.180Z,99458.25
2023-01-19T00:45:32.470Z,99465.72
2023-01-19T00:48:21.499Z,99470.19
2023-01-19T00:51:03.387Z,99469.41
2023-01-19T00:53:52.134Z,99472.63
2023-01-19T00:56:34.563Z,99471.94
2023-01-19T00:59:22.987Z,99482.00
2023-01-19T01:02:06.482Z,99470.84
2023-01-19T01:04:55.147Z,99479.63
2023-01-19T01:07:53.128Z,99477.88
2023-01-19T01:10:42.346Z,99479.47
2023-01-19T01:13:26.321Z,99489.16
2023-01-19T01:16:17.074Z,99485.22
2023-01-19T01:18:59.451Z,99494.16
2023-01-19T01:21:48.183Z,99495.66
2023-01-19T01:24:31.412Z,99495.31
2023-01-19T01:27:20.001Z,99486.72
2023-01-19T01:30:02.357Z,99490.19
2023-01-19T01:32:51.184Z,99501.25
2023-01-19T01:35:42.060Z,99501.63
2023-01-19T01:38:30.988Z,99512.03
2023-01-19T01:41:21.832Z,99513.00
2023-01-19T01:44:56.979Z,99516.53
2023-01-19T01:47:53.417Z,99509.56
2023-01-19T01:50:47.191Z,99520.34
2023-01-19T01:53:45.016Z,99527.44
2023-01-19T01:56:44.153Z,99530.41
2023-01-19T01:59:41.600Z,99533.41
2023-01-19T02:02:52.191Z,99536.38
2023-01-19T02:05:42.488Z,99547.28
2023-01-19T02:08:55.036Z,99546.59
2023-01-19T02:12:04.121Z,99547.72
2023-01-19T02:14:52.644Z,99547.38
2023-01-19T02:17:35.130Z,99554.53
2023-01-19T02:20:18.007Z,99552.03
2023-01-19T02:23:10.146Z,99551.25
2023-01-19T02:25:52.586Z,99558.19
2023-01-19T02:28:43.104Z,99557.19
2023-01-19T02:31:33.060Z,99560.31
2023-01-19T02:34:26.148Z,99565.59
2023-01-19T02:37:16.207Z,99572.41
2023-01-19T02:40:09.409Z,99570.91
2023-01-19T02:42:58.634Z,99571.38
2023-01-19T02:45:41.627Z,99572.56
2023-01-19T02:48:39.049Z,99582.50
2023-01-19T02:51:26.396Z,99573.56
2023-01-19T02:54:41.069Z,99571.06
2023-01-19T02:58:11.014Z,99579.44
2023-01-19T03:01:05.120Z,99571.41
2023-01-19T03:04:02.190Z,99579.81
2023-01-19T03:06:56.403Z,99587.16
2023-01-19T03:10:08.118Z,99588.09
2023-01-19T03:13:11.097Z,99595.50
2023-01-19T03:16:07.904Z,99600.34
2023-01-19T03:19:02.101Z,99592.97
2023-01-19T03:21:50.216Z,99606.50
2023-01-19T03:24:41.107Z,99609.97
2023-01-19T03:27:34.333Z,99618.56
2023-01-19T03:30:22.140Z,99619.91
2023-01-19T03:33:10.487Z,99622.41
2023-01-19T03:36:05.147Z,99615.34
2023-01-19T03:38:56.438Z,99629.44
2023-01-19T03:41:42.101Z,99625.34
2023-01-19T03:44:27.129Z,99626.00
2023-01-19T03:47:17.177Z,99625.38
2023-01-19T03:50:03.590Z,99631.31
2023-01-19T03:52:52.093Z,99634.34
2023-01-19T03:55:42.445Z,99641.03
2023-01-19T03:58:25.356Z,99633.00
2023-01-19T04:01:07.340Z,99644.09
2023-01-19T04:03:57.081Z,99646.09
2023-01-19T04:06:39.248Z,99640.00
2023-01-19T04:09:28.039Z,99648.41
2023-01-19T04:12:17.369Z,99650.91
2023-01-19T04:15:00.129Z,99656.16
2023-01-19T04:17:42.956Z,99664.16
2023-01-19T04:20:32.146Z,99659.31
2023-01-19T04:23:14.234Z,99662.34
2023-01-19T04:26:03.985Z,99675.22
2023-01-19T04:28:52.459Z,99671.47
2023-01-19T04:31:35.131Z,99678.34
2023-01-19T04:34:17.365Z,99682.47
2023-01-19T04:37:06.078Z,99688.34
2023-01-19T04:39:48.308Z,99677.94
2023-01-19T04:42:36.956Z,99673.13
2023-01-19T04:45:19.619Z,99676.59
2023-01-19T04:48:09.152Z,99677.66
2023-01-19T04:51:00.093Z,99685.84
2023-01-19T04:53:49.104Z,99680.84
2023-01-19T04:56:37.990Z,99678.94
2023-01-19T04:59:21.484Z,99683.16
2023-01-19T05:02:10.142Z,99690.66
2023-01-19T05:04:58.927Z,99676.59
2023-01-19T05:07:48.151Z,99681.41
2023-01-19T05:10:30.333Z,99673.53
2023-01-19T05:13:19.089Z,99680.69
2023-01-19T05:16:01.412Z,99681.88
2023-01-19T05:18:50.199Z,99682.81
2023-01-19T05:21:32.634Z,99686.69
2023-01-19T05:24:23.062Z,99685.50
2023-01-19T05:27:05.530Z,99679.53
2023-01-19T05:29:53.986Z,99681.09
2023-01-19T05:32:43.100Z,99669.22
2023-01-19T05:35:36.314Z,99665.81
2023-01-19T05:38:23.370Z,99665.25
2023-01-19T05:41:18.076Z,99660.28
2023-01-19T05:44:00.418Z,99671.16
2023-01-19T05:46:49.131Z,99663.66
2023-01-19T05:49:31.571Z,99662.69
2023-01-19T05:52:20.128Z,99652.97
2023-01-19T05:55:15.516Z,99653.09
2023-01-19T05:58:04.218Z,99644.88
2023-01-19T06:00:46.351Z,99643.50
2023-01-19T06:03:36.097Z,99636.00
2023-01-19T06:06:18.462Z,99630.16
2023-01-19T06:09:07.134Z,99626.50
2023-01-19T06:11:49.752Z,99623.06
2023-01-19T06:14:40.030Z,99603.84
2023-01-19T06:17:22.363Z,99604.88
2023-01-19T06:20:10.933Z,99611.84
2023-01-19T06:22:53.426Z,99609.34
2023-01-19T06:25:42.051Z,99612.09
2023-01-19T06:28:24.724Z,99603.34
2023-01-19T06:31:14.067Z,99604.13
2023-01-19T06:33:56.394Z,99603.38
2023-01-19T06:36:45.024Z,99593.69
2023-01-19T06:39:28.434Z,99591.84
2023-01-19T06:42:17.092Z,99592.41
2023-01-19T06:44:59.421Z,99582.16
2023-01-19T06:47:48.090Z,99575.72
2023-01-19T06:50:30.369Z,99572.88
2023-01-19T06:53:19.065Z,99566.66
2023-01-19T06:56:08.971Z,99562.00
2023-01-19T06:58:58.089Z,99561.69
2023-01-19T07:01:47.108Z,99548.72
2023-01-19T07:04:36.075Z,99554.25
2023-01-19T07:07:18.353Z,99537.38
2023-01-19T07:10:07.145Z,99534.47
2023-01-19T07:12:49.450Z,99533.69
2023-01-19T07:15:38.079Z,99520.22
2023-01-19T07:18:27.177Z,99515.06
2023-01-19T07:21:09.735Z,99502.78
2023-01-19T07:24:02.164Z,99501.31
2023-01-19T07:26:44.248Z,99483.03
2023-01-19T07:29:33.106Z,99471.44
2023-01-19T07:32:15.902Z,99468.06
2023-01-19T07:35:05.054Z,99458.63
2023-01-19T07:37:53.534Z,99449.41
2023-01-19T07:40:36.074Z,99446.50
2023-01-19T07:43:18.372Z,99441.16
2023-01-19T07:46:07.174Z,99432.63
2023-01-19T07:48:49.377Z,99410.78
2023-01-19T07:51:37.977Z,99397.78
2023-01-19T07:54:21.851Z,99383.31
2023-01-19T07:57:11.002Z,99392.66
2023-01-19T07:59:59.370Z,99407.91
2023-01-19T08:02:49.036Z,99415.97
2023-01-19T08:05:31.178Z,99421.25
2023-01-19T08:08:20.079Z,99410.34
2023-01-19T08:11:09.595Z,99407.75
2023-01-19T08:13:52.004Z,99399.56
2023-01-19T08:16:41.057Z,99397.06
2023-01-19T08:19:30.046Z,99402.56
2023-01-19T08:22:19.087Z,99394.03
2023-01-19T08:25:08.104Z,99399.94
2023-01-19T08:27:50.246Z,99391.28
2023-01-19T08:30:39.111Z,99392.94
2023-01-19T08:33:29.106Z,99381.91
2023-01-19T08:36:11.320Z,99388.75
2023-01-19T08:39:00.961Z,99376.56
2023-01-19T08:41:49.939Z,99377.94
2023-01-19T08:44:46.709Z,99373.31
2023-01-19T08:47:39.194Z,99365.63
2023-01-19T08:50:27.373Z,99355.69
2023-01-19T08:53:12.094Z,99359.09
2023-01-19T08:56:12.068Z,99364.97
2023-01-19T08:59:08.223Z,99358.03
2023-01-19T09:01:52.240Z,99363.81
2023-01-19T09:04:42.097Z,99353.84
2023-01-19T09:07:32.511Z,99338.19
2023-01-19T09:10:18.353Z,99336.88
2023-01-19T09:13:07.144Z,99339.34
2023-01-19T09:15:50.355Z,99349.19
2023-01-19T09:18:39.065Z,99355.16
2023-01-19T09:21:28.041Z,99351.50
2023-01-19T09:24:10.433Z,99353.03
2023-01-19T09:26:59.071Z,99344.63
2023-01-19T09:29:53.613Z,99341.38
2023-01-19T09:32:35.108Z,99348.81
2023-01-19T09:35:24.048Z,99352.56
2023-01-19T09:38:06.302Z,99341.81
2023-01-19T09:41:01.166Z,99357.69
2023-01-19T09:43:54.388Z,99365.75
2023-01-19T09:46:49.139Z,99371.97
2023-01-19T09:49:41.444Z,99374.63
2023-01-19T09:52:30.041Z,99359.97
2023-01-19T09:55:30.331Z,99366.50
2023-01-19T09:58:17.173Z,99366.81
2023-01-19T10:01:20.529Z,99361.63
2023-01-19T10:04:29.126Z,99356.81
2023-01-19T10:07:38.328Z,99370.13
2023-01-19T10:10:31.040Z,99367.53
2023-01-19T10:13:40.965Z,99370.50
2023-01-19T10:16:30.211Z,99372.38
2023-01-19T10:19:33.772Z,99370.63
2023-01-19T10:22:34.120Z,99392.50
2023-01-19T10:25:28.448Z,99381.06
2023-01-19T10:28:12.397Z,99365.78
2023-01-19T10:30:57.146Z,99360.81
2023-01-19T10:33:48.056Z,99362.41
2023-01-19T10:36:35.333Z,99386.28
2023-01-19T10:39:28.063Z,99390.47
2023-01-19T10:42:16.584Z,99388.44
2023-01-19T10:45:05.063Z,99400.44
2023-01-19T10:47:55.443Z,99388.03
2023-01-19T10:50:49.241Z,99390.47
2023-01-19T10:53:44.979Z,99393.00
2023-01-19T10:56:46.104Z,99388.75
2023-01-19T10:59:42.321Z,99386.75
2023-01-19T11:02:31.297Z,99390.09
2023-01-19T11:05:30.980Z,99394.03
2023-01-19T11:08:37.997Z,99397.91
2023-01-19T11:11:28.469Z,99378.94
2023-01-19T11:14:18.073Z,99390.97
2023-01-19T11:17:07.340Z,99385.38
2023-01-19T11:19:50.042Z,99397.28
2023-01-19T11:22:41.022Z,99403.09
2023-01-19T11:25:35.444Z,99406.81
2023-01-19T11:28:44.183Z,99402.97
2023-01-19T11:31:38.585Z,99411.13
2023-01-19T11:34:35.062Z,99408.06
2023-01-19T11:37:29.428Z,99404.22
2023-01-19T11:40:19.036Z,99405.09
2023-01-19T11:43:02.478Z,99400.16
2023-01-19T11:45:54.666Z,99390.41
2023-01-19T11:48:46.363Z,99388.06
2023-01-19T11:51:39.088Z,99378.50
2023-01-19T11:54:38.148Z,99378.59
2023-01-19T11:57:28.054Z,99385.03
2023-01-19T12:00:19.384Z,99372.97
2023-01-19T12:03:19.144Z,99375.91
2023-01-19T12:06:06.330Z,99378.75
2023-01-19T12:09:06.049Z,99381.34
2023-01-19T12:12:10.460Z,99387.09
2023-01-19T12:15:03.709Z,99381.53
2023-01-19T12:17:55.306Z,99374.81
2023-01-19T12:20:51.981Z,99366.16
2023-01-19T12:23:58.474Z,99357.00
2023-01-19T12:26:56.040Z,99370.00
2023-01-19T12:29:43.570Z,99374.34
2023-01-19T12:32:44.007Z,99367.22
2023-01-19T12:36:10.996Z,99383.69
2023-01-19T12:39:09.286Z,99387.81
2023-01-19T12:41:52.041Z,99391.97
2023-01-19T12:44:41.981Z,99392.13
2023-01-19T12:47:25.412Z,99388.84
2023-01-19T12:50:22.078Z,99392.59
2023-01-19T12:53:16.973Z,99394.47
2023-01-19T12:56:23.029Z,99402.56
2023-01-19T12:59:07.557Z,99393.66
2023-01-19T13:01:56.151Z,99392.44
2023-01-19T13:04:39.049Z,99392.22
2023-01-19T13:07:28.034Z,99388.94
2023-01-19T13:10:53.321Z,99402.97
2023-01-19T13:13:45.984Z,99406.91
2023-01-19T13:16:28.626Z,99408.31
2023-01-19T13:19:32.029Z,99404.84
2023-01-19T13:22:50.630Z,99393.91
2023-01-19T13:25:50.023Z,99394.56
2023-01-19T13:28:51.995Z,99392.50
2023-01-19T13:31:41.912Z,99392.13
2023-01-19T13:34:34.032Z,99399.31
2023-01-19T13:37:28.402Z,99391.47
2023-01-19T13:40:41.034Z,99403.44
2023-01-19T13:43:32.306Z,99402.16
2023-01-19T13:46:22.138Z,99410.38
2023-01-19T13:49:31.060Z,99411.66
2023-01-19T13:52:33.068Z,99417.44
2023-01-19T13:55:29.946Z,99425.84
2023-01-19T13:58:32.032Z,99435.56
2023-01-19T14:01:14.431Z,99441.94
2023-01-19T14:04:04.087Z,99445.22
2023-01-19T14:06:56.649Z,99444.81
2023-01-19T14:09:46.982Z,99445.00
2023-01-19T14:12:40.171Z,99444.22
2023-01-19T14:15:34.109Z,99451.81
2023-01-19T14:18:17.333Z,99453.72
2023-01-19T14:21:11.009Z,99467.06
2023-01-19T14:24:08.052Z,99469.16
2023-01-19T14:27:00.031Z,99467.31
2023-01-19T14:29:52.063Z,99456.19
2023-01-19T14:32:48.592Z,99459.50
2023-01-19T14:35:40.161Z,99456.63
2023-01-19T14:38:22.244Z,99457.00
2023-01-19T14:41:11.018Z,99464.88
2023-01-19T14:43:53.363Z,99469.19
2023-01-19T14:46:42.986Z,99466.13
2023-01-19T14:49:42.090Z,99471.47
2023-01-19T14:52:40.077Z,99472.72
2023-01-19T14:55:33.991Z,99481.97
2023-01-19T14:58:28.127Z,99477.44
2023-01-19T15:01:17.519Z,99474.59
2023-01-19T15:03:59.976Z,99470.88
2023-01-19T15:06:50.746Z,99474.97
2023-01-19T15:09:34.014Z,99482.59
2023-01-19T15:12:26.049Z,99488.75
2023-01-19T15:15:15.976Z,99485.03
2023-01-19T15:17:59.522Z,99497.38
2023-01-19T15:20:51.333Z,99492.25
2023-01-19T15:23:36.189Z,99495.31
2023-01-19T15:26:30.109Z,99505.34
2023-01-19T15:29:32.144Z,99507.56
2023-01-19T15:32:19.037Z,99507.41
2023-01-19T15:35:01.487Z,99500.38
2023-01-19T15:37:50.037Z,99508.81
2023-01-19T15:40:40.108Z,99503.69
2023-01-19T15:43:29.006Z,99509.25
2023-01-19T15:46:21.029Z,99508.84
2023-01-19T15:49:03.408Z,99510.47
2023-01-19T15:51:52.030Z,99504.72
2023-01-19T15:55:07.221Z,99509.22
2023-01-19T15:57:58.044Z,99513.09
2023-01-19T16:00:42.622Z,99514.16
2023-01-19T16:03:33.048Z,99507.34
2023-01-19T16:06:17.470Z,99514.94
2023-01-19T16:12:20.961Z,99521.28
2023-01-19T16:15:10.260Z,99516.94
2023-01-19T16:17:53.461Z,99518.09
2023-01-19T16:20:41.962Z,99520.81
2023-01-19T16:23:24.234Z,99513.41
2023-01-19T16:26:17.958Z,99519.75
2023-01-19T16:29:00.222Z,99516.91
2023-01-19T16:31:51.093Z,99512.44
2023-01-19T16:34:33.304Z,99507.09
2023-01-19T16:37:22.009Z,99508.72
2023-01-19T16:40:11.471Z,99517.53
2023-01-19T16:42:54.416Z,99521.81
2023-01-19T16:45:44.048Z,99519.34
2023-01-19T16:48:27.132Z,99537.22
2023-01-19T16:51:21.007Z,99538.88
2023-01-19T16:54:03.286Z,99542.22
2023-01-19T16:56:51.986Z,99544.03
2023-01-19T16:59:48.579Z,99531.78
2023-01-19T17:02:38.041Z,99522.13
2023-01-19T17:05:26.280Z,99519.53
2023-01-19T17:08:08.017Z,99530.84
2023-01-19T17:10:57.467Z,99523.00
2023-01-19T17:13:40.045Z,99518.66
2023-01-19T17:16:22.948Z,99528.34
2023-01-19T17:19:13.008Z,99525.44
2023-01-19T17:22:03.977Z,99529.94
2023-01-19T17:24:46.334Z,99531.59
2023-01-19T17:27:34.975Z,99529.16
2023-01-19T17:30:18.500Z,99523.44
2023-01-19T17:33:07.018Z,99519.75
2023-01-19T17:35:49.517Z,99513.59
2023-01-19T17:38:37.993Z,99518.69
2023-01-19T17:41:33.004Z,99514.00
2023-01-19T17:44:15.437Z,99499.28
2023-01-19T17:46:58.580Z,99501.09
2023-01-19T17:49:49.083Z,99503.81
2023-01-19T17:52:37.986Z,99515.66
2023-01-19T17:55:28.154Z,99528.53
2023-01-19T17:58:18.548Z,99538.56
2023-01-19T18:01:01.542Z,99533.91
2023-01-19T18:03:51.284Z,99522.59
2023-01-19T18:06:40.051Z,99519.94
2023-01-19T18:09:22.524Z,99511.88
2023-01-19T18:12:11.031Z,99511.69
2023-01-19T18:14:59.468Z,99510.28
2023-01-19T18:17:42.297Z,99503.09
2023-01-19T18:20:24.513Z,99503.28
2023-01-19T18:23:12.949Z,99502.88
2023-01-19T18:26:11.279Z,99503.47
2023-01-19T18:29:01.089Z,99505.53
2023-01-19T18:31:43.914Z,99496.72
2023-01-19T18:34:33.565Z,99493.63
2023-01-19T18:37:22.001Z,99494.66
2023-01-19T18:40:05.612Z,99484.34
2023-01-19T18:42:54.042Z,99485.81
2023-01-19T18:45:38.011Z,99486.66
2023-01-19T18:48:26.930Z,99485.03
2023-01-19T18:51:14.457Z,99482.97
2023-01-19T18:54:04.025Z,99474.75
2023-01-19T18:56:58.987Z,99469.47
2023-01-19T18:59:45.164Z,99466.19
2023-01-19T19:02:34.028Z,99465.19
2023-01-19T19:05:23.438Z,99456.78
2023-01-19T19:08:04.957Z,99455.16
2023-01-19T19:10:54.443Z,99450.81
2023-01-19T19:13:37.114Z,99444.22
2023-01-19T19:16:25.923Z,99440.50
2023-01-19T19:19:09.465Z,99430.66
2023-01-19T19:21:59.976Z,99428.03
2023-01-19T19:24:48.919Z,99431.09
2023-01-19T19:27:31.395Z,99443.94
2023-01-19T19:30:20.987Z,99427.22
2023-01-19T19:33:10.516Z,99436.97
2023-01-19T19:35:51.960Z,99430.03
2023-01-19T19:38:43.929Z,99431.78
2023-01-19T19:41:29.987Z,99432.13
2023-01-19T19:44:15.723Z,99432.50
2023-01-19T19:47:05.029Z,99436.56
2023-01-19T19:49:47.227Z,99437.41
2023-01-19T19:52:35.934Z,99427.94
2023-01-19T19:55:31.945Z,99424.66
2023-01-19T19:58:20.939Z,99426.44
2023-01-19T20:01:04.213Z,99431.50
2023-01-19T20:03:52.953Z,99437.00
2023-01-19T20:06:39.669Z,99430.03
2023-01-19T20:09:28.815Z,99424.53
2023-01-19T20:12:18.027Z,99421.28
2023-01-19T20:15:06.898Z,99425.34
2023-01-19T20:17:49.512Z,99422.00
2023-01-19T20:20:37.967Z,99422.41
2023-01-19T20:23:20.398Z,99423.66
2023-01-19T20:26:12.946Z,99416.44
2023-01-19T20:28:56.313Z,99410.47
2023-01-19T20:31:50.032Z,99412.47
2023-01-19T20:34:36.742Z,99422.09
2023-01-19T20:37:25.981Z,99435.09
2023-01-19T20:40:14.966Z,99430.91
2023-01-19T20:42:57.332Z,99433.56
2023-01-19T20:45:47.310Z,99428.91
2023-01-19T20:48:29.539Z,99416.78
2023-01-19T20:51:27.982Z,99414.91
2023-01-19T20:54:21.323Z,99409.13
2023-01-19T20:57:09.940Z,99389.50
2023-01-19T20:59:52.278Z,99387.09
2023-01-19T21:02:40.964Z,99386.25
2023-01-19T21:05:23.298Z,99370.28
2023-01-19T21:08:12.023Z,99384.41
2023-01-19T21:10:54.204Z,99384.03
2023-01-19T21:13:43.016Z,99385.00
2023-01-19T21:16:25.276Z,99382.09
2023-01-19T21:19:13.903Z,99380.41
2023-01-19T21:21:56.296Z,99382.28
2023-01-19T21:24:44.978Z,99381.91
2023-01-19T21:27:27.331Z,99382.88
2023-01-19T21:30:17.064Z,99388.66
2023-01-19T21:33:05.953Z,99391.91
2023-01-19T21:36:05.284Z,99381.75
2023-01-19T21:38:47.954Z,99377.78
2023-01-19T21:41:35.787Z,99384.66
2023-01-19T21:44:26.990Z,99378.41
2023-01-19T21:47:15.234Z,99377.25
2023-01-19T21:49:57.009Z,99373.34
2023-01-19T21:52:40.100Z,99363.78
2023-01-19T21:55:28.963Z,99366.13
2023-01-19T21:58:17.983Z,99354.78
2023-01-19T22:01:09.847Z,99364.59
2023-01-19T22:04:04.987Z,99362.06
2023-01-19T22:06:47.434Z,99362.47
2023-01-19T22:09:35.976Z,99371.31
2023-01-19T22:12:18.290Z,99367.84
2023-01-19T22:15:06.891Z,99358.59
2023-01-19T22:17:56.183Z,99355.44
2023-01-19T22:20:44.234Z,99357.03
2023-01-19T22:23:26.080Z,99343.03
2023-01-19T22:26:16.230Z,99338.47
2023-01-19T22:29:04.959Z,99336.97
2023-01-19T22:31:47.957Z,99323.22
2023-01-19T22:34:36.983Z,99319.63
2023-01-19T22:37:25.215Z,99328.84
2023-01-19T22:40:08.101Z,99324.28
2023-01-19T22:42:57.056Z,99330.44
2023-01-19T22:45:39.203Z,99322.53
2023-01-19T22:48:27.900Z,99325.19
2023-01-19T22:51:11.302Z,99332.41
2023-01-19T22:53:59.976Z,99329.22
2023-01-19T22:56:49.242Z,99327.09
2023-01-19T22:59:31.870Z,99330.38
2023-01-19T23:02:14.208Z,99330.94
2023-01-19T23:05:02.974Z,99323.53
2023-01-19T23:07:45.379Z,99316.06
2023-01-19T23:10:33.959Z,99317.03
2023-01-19T23:13:16.105Z,99315.81
2023-01-19T23:16:04.825Z,99310.84
2023-01-19T23:18:55.266Z,99317.44
2023-01-19T23:21:38.939Z,99313.16
2023-01-19T23:24:21.223Z,99308.34
2023-01-19T23:27:09.943Z,99288.22
2023-01-19T23:29:52.110Z,99288.06
2023-01-19T23:32:40.849Z,99287.22
2023-01-19T23:35:23.135Z,99287.69
2023-01-19T23:38:11.877Z,99280.69
2023-01-19T23:40:54.059Z,99286.88
2023-01-19T23:43:42.948Z,99286.28
2023-01-19T23:46:25.597Z,99287.44
2023-01-19T23:49:14.929Z,99283.44
2023-01-19T23:52:03.948Z,99289.97
2023-01-19T23:54:46.297Z,99290.63
2023-01-19T23:57:34.859Z,99285.59
